createdAt,value
2022-08-04T00:00:31.084Z,20.67
2022-08-04T00:03:07.345Z,20.92
2022-08-04T00:05:41.407Z,20.60
2022-08-04T00:08:13.067Z,20.35
2022-08-04T00:10:41.278Z,19.23
2022-08-04T00:13:10.642Z,18.23
2022-08-04T00:15:38.441Z,17.58
2022-08-04T00:18:06.557Z,20.00
2022-08-04T00:20:35.296Z,21.80
2022-08-04T00:23:03.298Z,15.60
2022-08-04T00:25:31.177Z,18.58
2022-08-04T00:27:58.728Z,16.45
2022-08-04T00:30:27.958Z,20.95
2022-08-04T00:32:57.759Z,18.45
2022-08-04T00:35:25.473Z,25.07
2022-08-04T00:37:53.344Z,23.60
2022-08-04T00:40:25.038Z,26.17
2022-08-04T00:42:59.969Z,24.70
2022-08-04T00:46:15.178Z,26.67
2022-08-04T00:48:31.757Z,27.17
2022-08-04T00:51:03.931Z,29.50
2022-08-04T00:53:36.603Z,29.33
2022-08-04T00:56:06.380Z,32.05
2022-08-04T00:58:48.133Z,29.55
2022-08-04T01:01:23.451Z,35.07
2022-08-04T01:03:57.767Z,29.63
2022-08-04T01:06:34.357Z,34.67
2022-08-04T01:09:10.722Z,31.85
2022-08-04T01:11:56.143Z,32.13
2022-08-04T01:14:39.618Z,30.03
2022-08-04T01:17:16.410Z,30.95
2022-08-04T01:19:55.131Z,31.52
2022-08-04T01:22:41.020Z,26.30
2022-08-04T01:25:25.061Z,26.50
2022-08-04T01:28:04.721Z,29.60
2022-08-04T01:30:37.129Z,26.08
2022-08-04T01:33:05.454Z,29.95
2022-08-04T01:35:47.813Z,29.58
2022-08-04T01:38:21.621Z,29.10
2022-08-04T01:40:52.940Z,29.63
2022-08-04T01:43:21.320Z,30.40
2022-08-04T01:45:51.499Z,32.80
2022-08-04T01:48:19.500Z,34.28
2022-08-04T01:50:47.165Z,32.70
2022-08-04T01:53:20.961Z,28.77
2022-08-04T01:55:55.244Z,28.75
2022-08-04T01:58:24.540Z,35.30
2022-08-04T02:00:57.177Z,33.65
2022-08-04T02:04:19.525Z,37.50
2022-08-04T02:06:19.167Z,33.43
2022-08-04T02:08:52.370Z,33.50
2022-08-04T02:11:22.187Z,36.42
2022-08-04T02:13:55.129Z,31.25
2022-08-04T02:16:30.157Z,36.58
2022-08-04T02:19:01.070Z,35.60
2022-08-04T02:21:42.356Z,35.08
2022-08-04T02:24:17.483Z,35.05
2022-08-04T02:26:47.498Z,33.28
2022-08-04T02:29:18.260Z,34.00
2022-08-04T02:31:49.838Z,37.60
2022-08-04T02:34:19.105Z,39.50
2022-08-04T02:36:46.872Z,35.35
2022-08-04T02:39:17.307Z,39.35
2022-08-04T02:41:45.085Z,39.50
2022-08-04T02:44:12.728Z,37.40
2022-08-04T02:46:40.882Z,33.80
2022-08-04T02:49:11.508Z,38.10
2022-08-04T02:51:41.421Z,37.65
2022-08-04T02:54:08.972Z,35.35
2022-08-04T02:56:37.403Z,38.17
2022-08-04T02:59:05.985Z,32.55
2022-08-04T03:01:33.882Z,31.83
2022-08-04T03:04:07.644Z,36.40
2022-08-04T03:06:50.051Z,33.47
2022-08-04T03:09:24.450Z,38.60
2022-08-04T03:12:06.866Z,40.20
2022-08-04T03:14:52.026Z,33.25
2022-08-04T03:17:29.376Z,35.38
2022-08-04T03:20:06.304Z,32.90
2022-08-04T03:23:13.556Z,39.67
2022-08-04T03:25:57.209Z,34.25
2022-08-04T03:28:40.100Z,31.98
2022-08-04T03:31:15.827Z,34.78
2022-08-04T03:33:51.915Z,34.78
2022-08-04T03:36:43.282Z,35.83
2022-08-04T03:39:24.244Z,36.30
2022-08-04T03:42:12.138Z,34.22
2022-08-04T03:45:23.163Z,30.27
2022-08-04T03:48:06.603Z,33.67
2022-08-04T03:51:35.503Z,29.10
2022-08-04T03:54:17.315Z,33.70
2022-08-04T03:56:53.565Z,29.35
2022-08-04T03:59:49.095Z,29.48
2022-08-04T04:02:42.299Z,31.42
2022-08-04T04:05:26.566Z,35.47
2022-08-04T04:08:13.715Z,33.03
2022-08-04T04:11:10.807Z,34.42
2022-08-04T04:13:56.051Z,34.67
2022-08-04T04:16:30.040Z,29.20
2022-08-04T04:19:18.022Z,34.43
2022-08-04T04:22:00.490Z,32.55
2022-08-04T04:24:34.804Z,33.20
2022-08-04T04:27:09.875Z,30.73
2022-08-04T04:29:52.263Z,31.45
2022-08-04T04:32:24.601Z,29.80
2022-08-04T04:35:04.309Z,31.80
2022-08-04T04:37:39.653Z,35.85
2022-08-04T04:40:23.265Z,32.53
2022-08-04T04:43:01.759Z,29.08
2022-08-04T04:45:31.966Z,25.30
2022-08-04T04:48:08.782Z,27.40
2022-08-04T04:50:46.237Z,25.25
2022-08-04T04:53:18.737Z,28.10
2022-08-04T04:55:48.761Z,22.45
2022-08-04T04:58:17.983Z,20.40
2022-08-04T05:00:52.533Z,22.58
2022-08-04T05:03:29.537Z,25.38
2022-08-04T05:06:09.374Z,22.45
2022-08-04T05:08:54.474Z,20.63
2022-08-04T05:11:46.290Z,19.07
2022-08-04T05:14:35.949Z,21.98
2022-08-04T05:17:09.191Z,17.98
2022-08-04T05:19:43.078Z,19.10
2022-08-04T05:22:14.768Z,18.90
2022-08-04T05:24:44.010Z,15.50
2022-08-04T05:27:13.263Z,15.93
2022-08-04T05:29:47.093Z,15.85
2022-08-04T05:32:17.161Z,15.20
2022-08-04T05:34:46.386Z,15.50
2022-08-04T05:37:17.722Z,14.63
2022-08-04T05:39:47.345Z,12.90
2022-08-04T05:42:15.653Z,12.57
2022-08-04T05:44:48.946Z,12.68
2022-08-04T05:47:20.502Z,12.15
2022-08-04T05:50:01.176Z,12.00
2022-08-04T05:52:31.731Z,11.95
2022-08-04T05:55:00.393Z,13.35
2022-08-04T05:57:28.736Z,15.77
2022-08-04T05:59:57.545Z,13.02
2022-08-04T06:02:25.668Z,12.17
2022-08-04T06:04:53.709Z,10.50
2022-08-04T06:07:21.463Z,12.73
2022-08-04T06:09:50.647Z,13.07
2022-08-04T06:12:20.977Z,11.35
2022-08-04T06:14:49.865Z,8.93
2022-08-04T06:19:57.314Z,11.50
2022-08-04T06:20:18.293Z,12.10
2022-08-04T06:22:51.771Z,9.55
2022-08-04T06:25:21.815Z,10.30
2022-08-04T06:27:49.679Z,10.32
2022-08-04T06:30:19.214Z,8.37
2022-08-04T06:33:03.847Z,7.93
2022-08-04T06:35:32.905Z,7.97
2022-08-04T06:38:01.866Z,9.02
2022-08-04T06:40:33.637Z,9.25
2022-08-04T06:43:02.216Z,8.43
2022-08-04T06:45:29.859Z,8.57
2022-08-04T06:47:57.772Z,7.78
2022-08-04T06:51:27.839Z,7.07
2022-08-04T06:53:13.470Z,9.20
2022-08-04T06:55:43.669Z,8.45
2022-08-04T06:58:11.390Z,9.23
2022-08-04T07:00:40.132Z,8.73
2022-08-04T07:03:08.178Z,9.45
2022-08-04T07:05:36.259Z,7.68
2022-08-04T07:08:04.078Z,9.07
2022-08-04T07:10:31.868Z,6.78
2022-08-04T07:13:01.892Z,10.57
2022-08-04T07:15:29.682Z,8.97
2022-08-04T07:18:00.074Z,7.27
2022-08-04T07:20:34.453Z,8.55
2022-08-04T07:23:04.096Z,8.85
2022-08-04T07:26:00.352Z,7.30
2022-08-04T07:28:20.929Z,6.18
2022-08-04T07:30:49.500Z,7.55
2022-08-04T07:33:18.260Z,6.57
2022-08-04T07:36:09.509Z,8.07
2022-08-04T07:38:34.124Z,7.10
2022-08-04T07:43:55.848Z,7.57
2022-08-04T07:46:23.477Z,9.40
2022-08-04T07:48:51.109Z,7.45
2022-08-04T07:51:18.761Z,7.47
2022-08-04T07:53:55.528Z,9.77
2022-08-04T07:56:23.914Z,9.43
2022-08-04T07:58:51.502Z,9.57
2022-08-04T08:01:21.291Z,10.77
2022-08-04T08:03:49.121Z,9.13
2022-08-04T08:06:31.587Z,9.15
2022-08-04T08:09:12.385Z,9.40
2022-08-04T08:12:37.144Z,10.05
2022-08-04T08:14:30.265Z,8.95
2022-08-04T08:16:59.305Z,7.00
2022-08-04T08:19:26.897Z,7.28
2022-08-04T08:21:58.359Z,9.13
2022-08-04T08:24:27.835Z,9.25
2022-08-04T08:26:56.761Z,10.98
2022-08-04T08:29:25.714Z,8.95
2022-08-04T08:31:56.639Z,8.18
2022-08-04T08:34:28.944Z,8.10
2022-08-04T08:37:00.112Z,7.77
2022-08-04T08:39:30.334Z,9.57
2022-08-04T08:42:18.830Z,9.13
2022-08-04T08:45:04.412Z,7.93
2022-08-04T08:47:52.767Z,10.77
2022-08-04T08:50:53.370Z,8.05
2022-08-04T08:53:32.051Z,8.18
2022-08-04T08:56:31.514Z,7.78
2022-08-04T08:59:15.141Z,8.20
2022-08-04T09:01:50.627Z,8.83
2022-08-04T09:04:36.701Z,11.33
2022-08-04T09:07:14.878Z,9.73
2022-08-04T09:09:50.698Z,10.80
2022-08-04T09:12:25.618Z,8.30
2022-08-04T09:14:55.409Z,11.60
2022-08-04T09:17:28.095Z,9.20
2022-08-04T09:19:59.005Z,7.65
2022-08-04T09:22:30.764Z,9.98
2022-08-04T09:25:01.427Z,8.63
2022-08-04T09:27:32.366Z,7.70
2022-08-04T09:30:03.213Z,6.67
2022-08-04T09:32:33.548Z,7.78
2022-08-04T09:35:13.363Z,8.20
2022-08-04T09:37:48.189Z,10.30
2022-08-04T09:40:31.613Z,9.85
2022-08-04T09:43:10.210Z,6.90
2022-08-04T09:45:44.008Z,9.23
2022-08-04T09:48:15.160Z,6.68
2022-08-04T09:50:50.098Z,9.45
2022-08-04T09:53:31.831Z,7.47
2022-08-04T09:56:04.400Z,9.20
2022-08-04T09:58:41.621Z,6.85
2022-08-04T10:01:10.250Z,7.18
2022-08-04T10:03:39.847Z,6.25
2022-08-04T10:06:17.039Z,8.63
2022-08-04T10:08:57.281Z,8.93
2022-08-04T10:11:32.802Z,8.63
2022-08-04T10:14:03.534Z,6.03
2022-08-04T10:16:36.703Z,9.02
2022-08-04T10:19:09.054Z,6.57
2022-08-04T10:21:50.608Z,8.03
2022-08-04T10:24:32.462Z,7.40
2022-08-04T10:27:02.386Z,7.15
2022-08-04T10:29:34.027Z,8.05
2022-08-04T10:32:05.432Z,8.38
2022-08-04T10:34:37.507Z,8.63
2022-08-04T10:37:07.566Z,8.98
2022-08-04T10:39:43.147Z,6.30
2022-08-04T10:42:17.131Z,6.63
2022-08-04T10:44:57.435Z,6.93
2022-08-04T10:47:28.218Z,8.03
2022-08-04T10:49:56.676Z,7.00
2022-08-04T10:52:27.386Z,6.80
2022-08-04T10:54:59.253Z,6.45
2022-08-04T10:57:30.685Z,7.75
2022-08-04T11:00:03.819Z,5.97
2022-08-04T11:02:37.486Z,7.00
2022-08-04T11:05:13.472Z,7.32
2022-08-04T11:07:42.336Z,6.18
2022-08-04T11:10:11.422Z,5.97
2022-08-04T11:12:39.537Z,6.27
2022-08-04T11:15:10.416Z,6.40
2022-08-04T11:17:41.888Z,6.00
2022-08-04T11:23:04.865Z,7.43
2022-08-04T11:25:40.448Z,6.22
2022-08-04T11:28:12.245Z,7.45
2022-08-04T11:30:42.549Z,6.03
2022-08-04T11:33:16.837Z,6.22
2022-08-04T11:35:48.190Z,5.67
2022-08-04T11:38:21.269Z,5.37
2022-08-04T11:41:02.646Z,5.80
2022-08-04T11:44:00.645Z,5.47
2022-08-04T11:46:25.817Z,6.47
2022-08-04T11:48:57.364Z,5.65
2022-08-04T11:51:27.035Z,5.80
2022-08-04T11:53:55.363Z,5.45
2022-08-04T11:56:37.253Z,5.22
2022-08-04T11:59:07.542Z,6.38
2022-08-04T12:01:36.966Z,6.97
2022-08-04T12:04:07.454Z,6.23
2022-08-04T12:06:40.099Z,6.15
2022-08-04T12:09:13.508Z,9.00
2022-08-04T12:11:51.085Z,7.15
2022-08-04T12:14:25.682Z,7.25
2022-08-04T12:16:56.921Z,9.73
2022-08-04T12:19:33.916Z,10.00
2022-08-04T12:22:16.959Z,9.32
2022-08-04T12:24:53.162Z,10.73
2022-08-04T12:27:25.845Z,9.50
2022-08-04T12:30:58.020Z,8.37
2022-08-04T12:32:53.704Z,9.05
2022-08-04T12:35:22.395Z,8.95
2022-08-04T12:37:53.111Z,10.70
2022-08-04T12:40:29.726Z,11.38
2022-08-04T12:43:03.987Z,12.18
2022-08-04T12:45:31.888Z,10.27
2022-08-04T12:48:00.817Z,11.45
2022-08-04T12:50:29.057Z,12.52
2022-08-04T12:53:02.603Z,10.60
2022-08-04T12:55:31.919Z,9.87
2022-08-04T12:58:02.711Z,10.57
2022-08-04T13:00:40.205Z,12.35
2022-08-04T13:03:11.022Z,8.60
2022-08-04T13:05:39.969Z,9.93
2022-08-04T13:08:08.121Z,9.80
2022-08-04T13:10:39.196Z,8.85
2022-08-04T13:13:13.260Z,9.07
2022-08-04T13:15:46.803Z,9.10
2022-08-04T13:18:28.840Z,10.37
2022-08-04T13:20:58.104Z,9.97
2022-08-04T13:23:26.905Z,8.57
2022-08-04T13:26:45.146Z,9.10
2022-08-04T13:28:44.847Z,8.50
2022-08-04T13:31:14.082Z,8.10
2022-08-04T13:33:45.588Z,8.13
2022-08-04T13:36:13.520Z,9.80
2022-08-04T13:38:46.353Z,7.27
2022-08-04T13:41:14.401Z,8.85
2022-08-04T13:44:15.841Z,7.65
2022-08-04T13:46:33.518Z,11.65
2022-08-04T13:51:58.468Z,8.87
2022-08-04T13:54:27.031Z,8.83
2022-08-04T13:57:00.439Z,8.18
2022-08-04T13:59:29.433Z,7.15
2022-08-04T14:01:59.902Z,14.57
2022-08-04T14:04:29.094Z,10.32
2022-08-04T14:07:03.609Z,7.47
2022-08-04T14:09:35.097Z,8.40
2022-08-04T14:12:37.744Z,11.20
2022-08-04T14:14:56.321Z,11.30
2022-08-04T14:17:30.036Z,10.38
2022-08-04T14:19:59.086Z,11.48
2022-08-04T14:22:30.600Z,11.17
2022-08-04T14:24:58.857Z,11.63
2022-08-04T14:27:26.820Z,9.13
2022-08-04T14:29:54.398Z,9.82
2022-08-04T14:32:26.036Z,9.10
2022-08-04T14:34:55.442Z,10.93
2022-08-04T14:37:23.879Z,8.90
2022-08-04T14:40:17.296Z,8.17
2022-08-04T14:42:44.633Z,8.98
2022-08-04T14:45:30.398Z,11.82
2022-08-04T14:47:57.968Z,9.65
2022-08-04T14:50:37.177Z,10.60
2022-08-04T14:53:05.725Z,8.35
2022-08-04T14:55:33.301Z,7.97
2022-08-04T14:58:34.859Z,6.33
2022-08-04T15:00:49.342Z,7.63
2022-08-04T15:03:18.829Z,8.27
2022-08-04T15:06:03.983Z,7.00
2022-08-04T15:08:33.209Z,9.70
2022-08-04T15:11:02.907Z,8.10
2022-08-04T15:13:32.057Z,9.57
2022-08-04T15:16:06.786Z,11.95
2022-08-04T15:18:36.865Z,10.73
2022-08-04T15:21:06.750Z,9.80
2022-08-04T15:23:39.448Z,10.53
2022-08-04T15:26:08.677Z,8.88
2022-08-04T15:28:37.000Z,10.32
2022-08-04T15:31:05.135Z,8.10
2022-08-04T15:33:40.625Z,8.93
2022-08-04T15:36:14.345Z,10.40
2022-08-04T15:38:45.244Z,10.40
2022-08-04T15:41:17.427Z,12.15
2022-08-04T15:43:55.460Z,9.73
2022-08-04T15:46:45.060Z,11.05
2022-08-04T15:49:19.408Z,9.43
2022-08-04T15:51:48.610Z,10.77
2022-08-04T15:54:28.062Z,8.15
2022-08-04T15:57:02.209Z,10.32
2022-08-04T15:59:49.214Z,8.93
2022-08-04T16:02:40.124Z,8.27
2022-08-04T16:05:30.005Z,9.63
2022-08-04T16:07:59.916Z,6.78
2022-08-04T16:10:37.255Z,9.82
2022-08-04T16:13:06.045Z,8.32
2022-08-04T16:15:44.243Z,7.17
2022-08-04T16:18:25.383Z,7.93
2022-08-04T16:20:55.451Z,13.25
2022-08-04T16:23:53.081Z,8.35
2022-08-04T16:26:36.968Z,7.95
2022-08-04T16:29:05.631Z,7.20
2022-08-04T16:31:36.045Z,6.72
2022-08-04T16:34:36.670Z,7.78
2022-08-04T16:36:57.548Z,7.90
2022-08-04T16:39:26.672Z,7.68
2022-08-04T16:41:54.513Z,8.10
2022-08-04T16:44:51.711Z,6.63
2022-08-04T16:47:38.343Z,7.05
2022-08-04T16:50:06.243Z,7.10
2022-08-04T16:52:33.882Z,4.68
2022-08-04T16:55:04.372Z,5.97
2022-08-04T16:57:35.766Z,6.50
2022-08-04T17:00:07.396Z,6.28
2022-08-04T17:02:35.338Z,6.40
2022-08-04T17:05:07.788Z,9.73
2022-08-04T17:08:02.221Z,7.67
2022-08-04T17:10:39.974Z,7.22
2022-08-04T17:14:03.802Z,7.22
2022-08-04T17:16:18.323Z,7.28
2022-08-04T17:18:47.193Z,7.60
2022-08-04T17:21:15.826Z,10.00
2022-08-04T17:24:13.362Z,10.35
2022-08-04T17:26:40.227Z,10.00
2022-08-04T17:29:09.397Z,9.20
2022-08-04T17:31:37.969Z,11.05
2022-08-04T17:34:14.111Z,11.50
2022-08-04T17:36:44.088Z,10.30
2022-08-04T17:39:16.678Z,9.98
2022-08-04T17:41:48.667Z,12.02
2022-08-04T17:44:17.990Z,11.88
2022-08-04T17:46:48.199Z,11.67
2022-08-04T17:49:21.252Z,17.15
2022-08-04T17:52:05.409Z,15.35
2022-08-04T17:54:39.425Z,14.15
2022-08-04T17:57:20.641Z,14.05
2022-08-04T17:59:56.568Z,18.43
2022-08-04T18:02:31.902Z,18.27
2022-08-04T18:05:07.049Z,15.18
2022-08-04T18:08:37.933Z,18.92
2022-08-04T18:10:41.691Z,17.85
2022-08-04T18:13:23.286Z,18.73
2022-08-04T18:15:51.172Z,21.25
2022-08-04T18:18:23.384Z,20.20
2022-08-04T18:20:51.522Z,22.02
2022-08-04T18:23:19.067Z,24.30
2022-08-04T18:25:59.155Z,23.83
2022-08-04T18:28:33.184Z,17.15
2022-08-04T18:31:01.002Z,18.00
2022-08-04T18:33:39.578Z,16.58
2022-08-04T18:36:33.659Z,16.88
2022-08-04T18:38:58.459Z,14.33
2022-08-04T18:41:26.614Z,15.05
2022-08-04T18:43:56.773Z,13.48
2022-08-04T18:46:26.894Z,14.90
2022-08-04T18:48:55.067Z,14.23
2022-08-04T18:51:25.274Z,13.33
2022-08-04T18:53:58.784Z,11.13
2022-08-04T18:56:30.021Z,12.32
2022-08-04T18:59:02.864Z,11.60
2022-08-04T19:02:12.593Z,12.90
2022-08-04T19:04:33.229Z,12.83
2022-08-04T19:08:01.458Z,12.13
2022-08-04T19:09:54.240Z,12.50
2022-08-04T19:15:14.121Z,10.27
2022-08-04T19:17:52.690Z,11.70
2022-08-04T19:20:26.313Z,10.63
2022-08-04T19:24:30.140Z,9.73
2022-08-04T19:26:02.081Z,8.48
2022-08-04T19:28:31.813Z,9.27
2022-08-04T19:31:04.322Z,9.73
2022-08-04T19:33:58.532Z,9.05
2022-08-04T19:36:20.066Z,10.50
2022-08-04T19:38:48.322Z,10.55
2022-08-04T19:41:18.245Z,11.32
2022-08-04T19:43:47.193Z,8.73
2022-08-04T19:49:04.142Z,8.68
2022-08-04T19:51:32.911Z,9.90
2022-08-04T19:54:02.721Z,8.10
2022-08-04T19:56:40.759Z,8.43
2022-08-04T19:59:09.120Z,11.05
2022-08-04T20:01:44.700Z,8.95
2022-08-04T20:04:13.324Z,7.53
2022-08-04T20:06:40.963Z,9.68
2022-08-04T20:09:16.931Z,7.47
2022-08-04T20:11:53.042Z,8.10
2022-08-04T20:14:22.901Z,5.18
2022-08-04T20:17:00.849Z,5.82
2022-08-04T20:19:28.619Z,6.20
2022-08-04T20:21:58.221Z,6.57
2022-08-04T20:24:40.482Z,8.57
2022-08-04T20:27:15.207Z,6.65
2022-08-04T20:29:48.763Z,7.13
2022-08-04T20:32:19.187Z,7.07
2022-08-04T20:34:47.500Z,8.03
2022-08-04T20:37:15.567Z,7.90
2022-08-04T20:39:43.287Z,5.63
2022-08-04T20:42:12.509Z,7.13
2022-08-04T20:44:46.384Z,5.68
2022-08-04T20:47:14.753Z,6.17
2022-08-04T20:49:43.902Z,6.43
2022-08-04T20:52:18.131Z,6.90
2022-08-04T20:54:48.854Z,7.15
2022-08-04T20:57:17.115Z,5.63
2022-08-04T20:59:50.312Z,5.80
2022-08-04T21:02:28.044Z,5.88
2022-08-04T21:04:57.988Z,6.60
2022-08-04T21:07:25.996Z,5.30
2022-08-04T21:09:53.753Z,7.65
2022-08-04T21:12:27.502Z,5.93
2022-08-04T21:14:57.866Z,4.85
2022-08-04T21:17:59.136Z,5.43
2022-08-04T21:20:27.750Z,6.88
2022-08-04T21:22:59.403Z,6.00
2022-08-04T21:25:27.593Z,5.13
2022-08-04T21:27:55.149Z,6.03
2022-08-04T21:30:26.990Z,6.72
2022-08-04T21:32:55.362Z,7.32
2022-08-04T21:35:37.558Z,7.90
2022-08-04T21:38:16.573Z,8.93
2022-08-04T21:40:53.278Z,7.97
2022-08-04T21:43:23.636Z,7.43
2022-08-04T21:45:55.702Z,8.27
2022-08-04T21:48:23.831Z,5.90
2022-08-04T21:50:56.377Z,6.97
2022-08-04T21:53:24.845Z,6.35
2022-08-04T21:56:06.957Z,7.50
2022-08-04T21:58:36.258Z,5.10
2022-08-04T22:01:05.928Z,7.32
2022-08-04T22:03:52.516Z,7.33
2022-08-04T22:06:28.500Z,7.25
2022-08-04T22:08:57.346Z,5.57
2022-08-04T22:14:29.595Z,6.72
2022-08-04T22:17:02.305Z,6.20
2022-08-04T22:19:49.980Z,8.60
2022-08-04T22:22:25.946Z,8.02
2022-08-04T22:24:55.048Z,6.43
2022-08-04T22:27:36.550Z,7.68
2022-08-04T22:30:08.154Z,6.37
2022-08-04T22:32:41.058Z,6.95
2022-08-04T22:35:36.314Z,5.50
2022-08-04T22:38:07.860Z,6.63
2022-08-04T22:40:47.508Z,6.75
2022-08-04T22:43:33.218Z,6.03
2022-08-04T22:46:03.874Z,5.78
2022-08-04T22:48:32.468Z,7.75
2022-08-04T22:51:00.287Z,7.05
2022-08-04T22:53:29.326Z,7.38
2022-08-04T22:56:07.674Z,8.03
2022-08-04T22:58:39.975Z,6.53
2022-08-04T23:01:08.092Z,8.45
2022-08-04T23:03:36.369Z,7.68
2022-08-04T23:06:06.376Z,7.15
2022-08-04T23:08:36.362Z,7.77
2022-08-04T23:11:07.982Z,8.23
2022-08-04T23:13:36.863Z,9.75
2022-08-04T23:16:05.015Z,10.20
2022-08-04T23:18:37.368Z,8.00
2022-08-04T23:21:10.419Z,11.97
2022-08-04T23:23:47.659Z,10.35
2022-08-04T23:26:28.404Z,8.65
2022-08-04T23:28:56.435Z,13.07
2022-08-04T23:31:24.083Z,7.97
2022-08-04T23:33:52.609Z,8.63
2022-08-04T23:36:29.748Z,10.50
2022-08-04T23:39:01.206Z,8.32
2022-08-04T23:41:51.101Z,8.50
2022-08-04T23:44:25.248Z,9.65
2022-08-04T23:46:57.922Z,8.67
2022-08-04T23:49:43.423Z,8.45
2022-08-04T23:52:23.247Z,10.05
2022-08-04T23:54:56.878Z,9.80
2022-08-04T23:57:31.593Z,9.50
